sensor_id;sensor_type;location;lat;lon;timestamp;temperature;humidity
7518;DHT22;3800;48.922;9.444;2023-04-20T00:00:58;3.40;99.90
7518;DHT22;3800;48.922;9.444;2023-04-20T00:03:26;3.40;99.90
7518;DHT22;3800;48.922;9.444;2023-04-20T00:05:54;3.40;99.90
7518;DHT22;3800;48.922;9.444;2023-04-20T00:08:23;3.40;99.90
7518;DHT22;3800;48.922;9.444;2023-04-20T00:10:51;3.40;99.90
7518;DHT22;3800;48.922;9.444;2023-04-20T00:13:19;3.40;99.90
7518;DHT22;3800;48.922;9.444;2023-04-20T00:15:47;3.40;99.90
7518;DHT22;3800;48.922;9.444;2023-04-20T00:18:16;3.40;99.90
7518;DHT22;3800;48.922;9.444;2023-04-20T00:20:44;3.40;99.90
7518;DHT22;3800;48.922;9.444;2023-04-20T00:23:13;3.40;99.90
7518;DHT22;3800;48.922;9.444;2023-04-20T00:25:41;3.40;99.90
7518;DHT22;3800;48.922;9.444;2023-04-20T00:28:09;3.40;99.90
7518;DHT22;3800;48.922;9.444;2023-04-20T00:30:38;3.40;99.90
7518;DHT22;3800;48.922;9.444;2023-04-20T00:33:06;3.40;99.90
7518;DHT22;3800;48.922;9.444;2023-04-20T00:35:34;3.40;99.90
7518;DHT22;3800;48.922;9.444;2023-04-20T00:38:02;3.40;99.90
7518;DHT22;3800;48.922;9.444;2023-04-20T00:40:31;3.40;99.90
7518;DHT22;3800;48.922;9.444;2023-04-20T00:43:14;3.40;99.90
7518;DHT22;3800;48.922;9.444;2023-04-20T00:45:42;3.30;99.90
7518;DHT22;3800;48.922;9.444;2023-04-20T00:48:11;3.20;99.90
7518;DHT22;3800;48.922;9.444;2023-04-20T00:50:39;3.10;99.90
7518;DHT22;3800;48.922;9.444;2023-04-20T00:53:07;3.10;99.90
7518;DHT22;3800;48.922;9.444;2023-04-20T00:55:36;3.10;99.90
7518;DHT22;3800;48.922;9.444;2023-04-20T00:58:04;3.10;99.90
7518;DHT22;3800;48.922;9.444;2023-04-20T01:00:32;3.10;99.90
7518;DHT22;3800;48.922;9.444;2023-04-20T01:03:00;3.00;99.90
7518;DHT22;3800;48.922;9.444;2023-04-20T01:05:28;3.00;99.90
7518;DHT22;3800;48.922;9.444;2023-04-20T01:07:57;2.90;99.90
7518;DHT22;3800;48.922;9.444;2023-04-20T01:10:25;2.80;99.90
7518;DHT22;3800;48.922;9.444;2023-04-20T01:12:53;2.80;99.90
7518;DHT22;3800;48.922;9.444;2023-04-20T01:15:21;2.70;99.90
7518;DHT22;3800;48.922;9.444;2023-04-20T01:17:50;2.60;99.90
7518;DHT22;3800;48.922;9.444;2023-04-20T01:20:18;2.60;99.90
7518;DHT22;3800;48.922;9.444;2023-04-20T01:22:47;2.60;99.90
7518;DHT22;3800;48.922;9.444;2023-04-20T01:25:15;2.60;99.90
7518;DHT22;3800;48.922;9.444;2023-04-20T01:27:43;2.50;99.90
7518;DHT22;3800;48.922;9.444;2023-04-20T01:30:11;2.50;99.90
7518;DHT22;3800;48.922;9.444;2023-04-20T01:32:40;2.50;99.90
7518;DHT22;3800;48.922;9.444;2023-04-20T01:35:08;2.50;99.90
7518;DHT22;3800;48.922;9.444;2023-04-20T01:37:37;2.50;99.90
7518;DHT22;3800;48.922;9.444;2023-04-20T01:40:09;2.40;99.90
7518;DHT22;3800;48.922;9.444;2023-04-20T01:42:37;2.40;99.90
7518;DHT22;3800;48.922;9.444;2023-04-20T01:45:06;2.40;99.90
7518;DHT22;3800;48.922;9.444;2023-04-20T01:47:34;2.30;99.90
7518;DHT22;3800;48.922;9.444;2023-04-20T01:50:02;2.30;99.90
7518;DHT22;3800;48.922;9.444;2023-04-20T01:52:31;2.30;99.90
7518;DHT22;3800;48.922;9.444;2023-04-20T01:54:59;2.30;99.90
7518;DHT22;3800;48.922;9.444;2023-04-20T01:57:27;2.30;99.90
7518;DHT22;3800;48.922;9.444;2023-04-20T01:59:55;2.30;99.90
7518;DHT22;3800;48.922;9.444;2023-04-20T02:02:24;2.30;99.90
7518;DHT22;3800;48.922;9.444;2023-04-20T02:04:52;2.20;99.90
7518;DHT22;3800;48.922;9.444;2023-04-20T02:07:20;2.20;99.90
7518;DHT22;3800;48.922;9.444;2023-04-20T02:09:48;2.20;99.90
7518;DHT22;3800;48.922;9.444;2023-04-20T02:12:17;2.20;99.90
7518;DHT22;3800;48.922;9.444;2023-04-20T02:14:46;2.30;99.90
7518;DHT22;3800;48.922;9.444;2023-04-20T02:17:14;2.30;99.90
7518;DHT22;3800;48.922;9.444;2023-04-20T02:19:42;2.20;99.90
7518;DHT22;3800;48.922;9.444;2023-04-20T02:22:10;2.30;99.90
7518;DHT22;3800;48.922;9.444;2023-04-20T02:24:39;2.30;99.90
7518;DHT22;3800;48.922;9.444;2023-04-20T02:27:08;2.30;99.90
7518;DHT22;3800;48.922;9.444;2023-04-20T02:29:35;2.20;99.90
7518;DHT22;3800;48.922;9.444;2023-04-20T02:32:04;2.20;99.90
7518;DHT22;3800;48.922;9.444;2023-04-20T02:34:33;2.30;99.90
7518;DHT22;3800;48.922;9.444;2023-04-20T02:37:01;2.20;99.90
7518;DHT22;3800;48.922;9.444;2023-04-20T02:39:30;2.30;99.90
7518;DHT22;3800;48.922;9.444;2023-04-20T02:41:58;2.30;99.90
7518;DHT22;3800;48.922;9.444;2023-04-20T02:44:26;2.30;99.90
7518;DHT22;3800;48.922;9.444;2023-04-20T02:46:55;2.20;99.90
7518;DHT22;3800;48.922;9.444;2023-04-20T02:49:23;2.10;99.90
7518;DHT22;3800;48.922;9.444;2023-04-20T02:51:51;2.00;99.90
7518;DHT22;3800;48.922;9.444;2023-04-20T02:54:19;1.80;99.90
7518;DHT22;3800;48.922;9.444;2023-04-20T02:56:48;1.80;99.90
7518;DHT22;3800;48.922;9.444;2023-04-20T02:59:16;1.70;99.90
7518;DHT22;3800;48.922;9.444;2023-04-20T03:01:44;1.70;99.90
7518;DHT22;3800;48.922;9.444;2023-04-20T03:04:12;1.70;99.90
7518;DHT22;3800;48.922;9.444;2023-04-20T03:06:41;1.60;99.90
7518;DHT22;3800;48.922;9.444;2023-04-20T03:09:09;1.60;99.90
7518;DHT22;3800;48.922;9.444;2023-04-20T03:11:37;1.60;99.90
7518;DHT22;3800;48.922;9.444;2023-04-20T03:14:05;1.60;99.90
7518;DHT22;3800;48.922;9.444;2023-04-20T03:16:34;1.60;99.90
7518;DHT22;3800;48.922;9.444;2023-04-20T03:19:03;1.50;99.90
7518;DHT22;3800;48.922;9.444;2023-04-20T03:21:31;1.40;99.90
7518;DHT22;3800;48.922;9.444;2023-04-20T03:23:59;1.30;99.90
7518;DHT22;3800;48.922;9.444;2023-04-20T03:26:27;1.30;99.90
7518;DHT22;3800;48.922;9.444;2023-04-20T03:28:56;1.30;99.90
7518;DHT22;3800;48.922;9.444;2023-04-20T03:31:24;1.20;99.90
7518;DHT22;3800;48.922;9.444;2023-04-20T03:33:52;1.30;99.90
7518;DHT22;3800;48.922;9.444;2023-04-20T03:36:20;1.20;99.90
7518;DHT22;3800;48.922;9.444;2023-04-20T03:38:49;1.30;99.90
7518;DHT22;3800;48.922;9.444;2023-04-20T03:41:17;1.30;99.90
7518;DHT22;3800;48.922;9.444;2023-04-20T03:43:45;1.30;99.90
7518;DHT22;3800;48.922;9.444;2023-04-20T03:46:14;1.30;99.90
7518;DHT22;3800;48.922;9.444;2023-04-20T03:48:42;1.20;99.90
7518;DHT22;3800;48.922;9.444;2023-04-20T03:51:11;1.30;99.90
7518;DHT22;3800;48.922;9.444;2023-04-20T03:53:39;1.30;99.90
7518;DHT22;3800;48.922;9.444;2023-04-20T03:56:08;1.20;99.90
7518;DHT22;3800;48.922;9.444;2023-04-20T03:58:36;1.20;99.90
7518;DHT22;3800;48.922;9.444;2023-04-20T04:01:05;1.10;99.90
7518;DHT22;3800;48.922;9.444;2023-04-20T04:03:35;1.20;99.90
7518;DHT22;3800;48.922;9.444;2023-04-20T04:06:04;1.20;99.90
7518;DHT22;3800;48.922;9.444;2023-04-20T04:08:32;1.20;99.90
7518;DHT22;3800;48.922;9.444;2023-04-20T04:11:01;1.30;99.90
7518;DHT22;3800;48.922;9.444;2023-04-20T04:13:29;1.20;99.90
7518;DHT22;3800;48.922;9.444;2023-04-20T04:15:58;1.30;99.90
7518;DHT22;3800;48.922;9.444;2023-04-20T04:18:26;1.30;99.90
7518;DHT22;3800;48.922;9.444;2023-04-20T04:20:54;1.30;99.90
7518;DHT22;3800;48.922;9.444;2023-04-20T04:23:23;1.40;99.90
7518;DHT22;3800;48.922;9.444;2023-04-20T04:25:51;1.30;99.90
7518;DHT22;3800;48.922;9.444;2023-04-20T04:28:20;1.40;99.90
7518;DHT22;3800;48.922;9.444;2023-04-20T04:30:48;1.40;99.90
7518;DHT22;3800;48.922;9.444;2023-04-20T04:33:16;1.50;99.90
7518;DHT22;3800;48.922;9.444;2023-04-20T04:35:44;1.50;99.90
7518;DHT22;3800;48.922;9.444;2023-04-20T04:38:13;1.50;99.90
7518;DHT22;3800;48.922;9.444;2023-04-20T04:40:41;1.50;99.90
7518;DHT22;3800;48.922;9.444;2023-04-20T04:43:10;1.50;99.90
7518;DHT22;3800;48.922;9.444;2023-04-20T04:45:38;1.50;99.90
7518;DHT22;3800;48.922;9.444;2023-04-20T04:48:06;1.50;99.90
7518;DHT22;3800;48.922;9.444;2023-04-20T04:50:34;1.50;99.90
7518;DHT22;3800;48.922;9.444;2023-04-20T04:53:03;1.60;99.90
7518;DHT22;3800;48.922;9.444;2023-04-20T04:55:31;1.60;99.90
7518;DHT22;3800;48.922;9.444;2023-04-20T04:57:59;1.60;99.90
7518;DHT22;3800;48.922;9.444;2023-04-20T05:00:27;1.60;99.90
7518;DHT22;3800;48.922;9.444;2023-04-20T05:02:56;1.60;99.90
7518;DHT22;3800;48.922;9.444;2023-04-20T05:05:24;1.60;99.90
7518;DHT22;3800;48.922;9.444;2023-04-20T05:07:52;1.70;99.90
7518;DHT22;3800;48.922;9.444;2023-04-20T05:10:20;1.70;99.90
7518;DHT22;3800;48.922;9.444;2023-04-20T05:12:49;1.70;99.90
7518;DHT22;3800;48.922;9.444;2023-04-20T05:15:17;1.80;99.90
7518;DHT22;3800;48.922;9.444;2023-04-20T05:17:46;2.00;99.90
7518;DHT22;3800;48.922;9.444;2023-04-20T05:20:14;2.00;99.90
7518;DHT22;3800;48.922;9.444;2023-04-20T05:22:42;2.10;99.90
7518;DHT22;3800;48.922;9.444;2023-04-20T05:25:11;2.20;99.90
7518;DHT22;3800;48.922;9.444;2023-04-20T05:27:39;2.30;99.90
7518;DHT22;3800;48.922;9.444;2023-04-20T05:30:08;2.50;99.90
7518;DHT22;3800;48.922;9.444;2023-04-20T05:32:36;2.50;99.90
7518;DHT22;3800;48.922;9.444;2023-04-20T05:35:05;2.60;99.90
7518;DHT22;3800;48.922;9.444;2023-04-20T05:37:34;2.70;99.90
7518;DHT22;3800;48.922;9.444;2023-04-20T05:40:02;2.80;99.90
7518;DHT22;3800;48.922;9.444;2023-04-20T05:42:31;2.90;99.90
7518;DHT22;3800;48.922;9.444;2023-04-20T05:45:00;2.90;99.90
7518;DHT22;3800;48.922;9.444;2023-04-20T05:47:28;3.00;99.90
7518;DHT22;3800;48.922;9.444;2023-04-20T05:49:56;3.10;99.90
7518;DHT22;3800;48.922;9.444;2023-04-20T05:52:24;3.10;99.90
7518;DHT22;3800;48.922;9.444;2023-04-20T05:54:53;3.20;99.90
7518;DHT22;3800;48.922;9.444;2023-04-20T05:57:21;3.30;99.90
7518;DHT22;3800;48.922;9.444;2023-04-20T05:59:50;3.40;99.90
7518;DHT22;3800;48.922;9.444;2023-04-20T06:02:18;3.40;99.90
7518;DHT22;3800;48.922;9.444;2023-04-20T06:04:46;3.50;99.90
7518;DHT22;3800;48.922;9.444;2023-04-20T06:07:14;3.50;99.90
7518;DHT22;3800;48.922;9.444;2023-04-20T06:09:43;3.60;99.90
7518;DHT22;3800;48.922;9.444;2023-04-20T06:12:11;3.70;99.90
7518;DHT22;3800;48.922;9.444;2023-04-20T06:14:39;3.80;99.90
7518;DHT22;3800;48.922;9.444;2023-04-20T06:17:07;3.90;99.90
7518;DHT22;3800;48.922;9.444;2023-04-20T06:19:36;4.10;99.90
7518;DHT22;3800;48.922;9.444;2023-04-20T06:22:06;4.10;99.90
7518;DHT22;3800;48.922;9.444;2023-04-20T06:24:34;4.20;99.90
7518;DHT22;3800;48.922;9.444;2023-04-20T06:27:02;4.30;99.90
7518;DHT22;3800;48.922;9.444;2023-04-20T06:29:30;4.50;99.90
7518;DHT22;3800;48.922;9.444;2023-04-20T06:31:59;4.50;99.90
7518;DHT22;3800;48.922;9.444;2023-04-20T06:34:27;4.60;99.90
7518;DHT22;3800;48.922;9.444;2023-04-20T06:36:56;4.90;99.90
7518;DHT22;3800;48.922;9.444;2023-04-20T06:39:24;4.80;99.90
7518;DHT22;3800;48.922;9.444;2023-04-20T06:41:53;4.90;99.90
7518;DHT22;3800;48.922;9.444;2023-04-20T06:44:21;5.00;99.90
7518;DHT22;3800;48.922;9.444;2023-04-20T06:46:49;5.10;99.90
7518;DHT22;3800;48.922;9.444;2023-04-20T06:49:17;5.20;99.90
7518;DHT22;3800;48.922;9.444;2023-04-20T06:51:46;5.30;99.90
7518;DHT22;3800;48.922;9.444;2023-04-20T06:54:15;5.50;99.90
7518;DHT22;3800;48.922;9.444;2023-04-20T06:56:43;5.70;99.90
7518;DHT22;3800;48.922;9.444;2023-04-20T06:59:11;5.80;99.90
7518;DHT22;3800;48.922;9.444;2023-04-20T07:01:39;5.90;99.90
7518;DHT22;3800;48.922;9.444;2023-04-20T07:04:08;6.00;99.90
7518;DHT22;3800;48.922;9.444;2023-04-20T07:06:37;6.00;99.90
7518;DHT22;3800;48.922;9.444;2023-04-20T07:09:05;6.00;99.90
7518;DHT22;3800;48.922;9.444;2023-04-20T07:11:33;6.10;99.90
7518;DHT22;3800;48.922;9.444;2023-04-20T07:14:01;6.10;99.90
7518;DHT22;3800;48.922;9.444;2023-04-20T07:16:30;6.20;99.90
7518;DHT22;3800;48.922;9.444;2023-04-20T07:18:59;6.30;99.90
7518;DHT22;3800;48.922;9.444;2023-04-20T07:21:27;6.30;99.90
7518;DHT22;3800;48.922;9.444;2023-04-20T07:23:56;6.30;99.90
7518;DHT22;3800;48.922;9.444;2023-04-20T07:26:24;6.30;99.90
7518;DHT22;3800;48.922;9.444;2023-04-20T07:28:52;6.40;99.90
7518;DHT22;3800;48.922;9.444;2023-04-20T07:31:20;6.40;99.90
7518;DHT22;3800;48.922;9.444;2023-04-20T07:33:48;6.50;99.90
7518;DHT22;3800;48.922;9.444;2023-04-20T07:36:17;6.70;99.90
7518;DHT22;3800;48.922;9.444;2023-04-20T07:38:46;6.80;99.90
7518;DHT22;3800;48.922;9.444;2023-04-20T07:41:14;6.80;99.90
7518;DHT22;3800;48.922;9.444;2023-04-20T07:43:43;7.00;99.90
7518;DHT22;3800;48.922;9.444;2023-04-20T07:46:18;7.00;99.90
7518;DHT22;3800;48.922;9.444;2023-04-20T07:48:40;7.20;99.90
7518;DHT22;3800;48.922;9.444;2023-04-20T07:51:09;7.30;99.90
7518;DHT22;3800;48.922;9.444;2023-04-20T07:53:37;7.50;99.90
7518;DHT22;3800;48.922;9.444;2023-04-20T07:56:05;7.60;99.90
7518;DHT22;3800;48.922;9.444;2023-04-20T07:58:33;7.70;99.90
7518;DHT22;3800;48.922;9.444;2023-04-20T08:01:02;7.70;99.90
7518;DHT22;3800;48.922;9.444;2023-04-20T08:03:30;7.70;99.90
7518;DHT22;3800;48.922;9.444;2023-04-20T08:05:58;7.70;99.90
7518;DHT22;3800;48.922;9.444;2023-04-20T08:08:26;7.60;99.90
7518;DHT22;3800;48.922;9.444;2023-04-20T08:10:56;7.60;99.90
7518;DHT22;3800;48.922;9.444;2023-04-20T08:13:24;7.70;99.90
7518;DHT22;3800;48.922;9.444;2023-04-20T08:15:53;7.70;99.90
7518;DHT22;3800;48.922;9.444;2023-04-20T08:18:21;7.70;99.90
7518;DHT22;3800;48.922;9.444;2023-04-20T08:20:50;7.70;99.90
7518;DHT22;3800;48.922;9.444;2023-04-20T08:23:18;7.70;99.90
7518;DHT22;3800;48.922;9.444;2023-04-20T08:25:47;7.60;99.90
7518;DHT22;3800;48.922;9.444;2023-04-20T08:28:15;7.60;99.90
7518;DHT22;3800;48.922;9.444;2023-04-20T08:30:43;7.50;99.90
7518;DHT22;3800;48.922;9.444;2023-04-20T08:33:11;7.40;99.90
7518;DHT22;3800;48.922;9.444;2023-04-20T08:35:40;7.40;99.90
7518;DHT22;3800;48.922;9.444;2023-04-20T08:38:08;7.30;99.90
7518;DHT22;3800;48.922;9.444;2023-04-20T08:40:37;7.40;99.90
7518;DHT22;3800;48.922;9.444;2023-04-20T08:43:05;7.40;99.90
7518;DHT22;3800;48.922;9.444;2023-04-20T08:45:34;7.40;99.90
7518;DHT22;3800;48.922;9.444;2023-04-20T08:48:05;7.50;99.90
7518;DHT22;3800;48.922;9.444;2023-04-20T08:50:33;7.60;99.90
7518;DHT22;3800;48.922;9.444;2023-04-20T08:53:02;7.60;99.90
7518;DHT22;3800;48.922;9.444;2023-04-20T08:55:30;7.60;99.90
7518;DHT22;3800;48.922;9.444;2023-04-20T08:57:59;7.60;99.90
7518;DHT22;3800;48.922;9.444;2023-04-20T09:00:27;7.60;99.90
7518;DHT22;3800;48.922;9.444;2023-04-20T09:02:56;7.70;99.90
7518;DHT22;3800;48.922;9.444;2023-04-20T09:05:26;7.70;99.90
7518;DHT22;3800;48.922;9.444;2023-04-20T09:07:55;7.70;99.90
7518;DHT22;3800;48.922;9.444;2023-04-20T09:10:23;7.70;99.90
7518;DHT22;3800;48.922;9.444;2023-04-20T09:12:51;7.80;99.90
7518;DHT22;3800;48.922;9.444;2023-04-20T09:15:24;7.80;99.90
7518;DHT22;3800;48.922;9.444;2023-04-20T09:17:52;7.90;99.90
7518;DHT22;3800;48.922;9.444;2023-04-20T09:20:26;7.90;99.90
7518;DHT22;3800;48.922;9.444;2023-04-20T09:22:54;7.90;99.90
7518;DHT22;3800;48.922;9.444;2023-04-20T09:25:23;7.90;99.90
7518;DHT22;3800;48.922;9.444;2023-04-20T09:27:58;7.90;99.90
7518;DHT22;3800;48.922;9.444;2023-04-20T09:30:36;7.90;99.90
7518;DHT22;3800;48.922;9.444;2023-04-20T09:33:09;8.00;99.90
7518;DHT22;3800;48.922;9.444;2023-04-20T09:35:38;8.00;99.90
7518;DHT22;3800;48.922;9.444;2023-04-20T09:38:07;8.00;99.90
7518;DHT22;3800;48.922;9.444;2023-04-20T09:40:35;8.00;99.90
7518;DHT22;3800;48.922;9.444;2023-04-20T09:43:07;8.00;99.90
7518;DHT22;3800;48.922;9.444;2023-04-20T09:45:37;8.00;99.90
7518;DHT22;3800;48.922;9.444;2023-04-20T09:48:05;8.00;99.90
7518;DHT22;3800;48.922;9.444;2023-04-20T09:50:35;8.10;99.90
7518;DHT22;3800;48.922;9.444;2023-04-20T09:53:03;8.10;99.90
7518;DHT22;3800;48.922;9.444;2023-04-20T09:55:31;8.10;99.90
7518;DHT22;3800;48.922;9.444;2023-04-20T09:58:01;8.20;99.90
7518;DHT22;3800;48.922;9.444;2023-04-20T10:00:30;8.20;99.90
7518;DHT22;3800;48.922;9.444;2023-04-20T10:02:59;8.20;99.90
7518;DHT22;3800;48.922;9.444;2023-04-20T10:05:32;8.20;99.90
7518;DHT22;3800;48.922;9.444;2023-04-20T10:08:00;8.20;99.90
7518;DHT22;3800;48.922;9.444;2023-04-20T10:10:28;8.30;99.90
7518;DHT22;3800;48.922;9.444;2023-04-20T10:12:58;8.30;99.90
7518;DHT22;3800;48.922;9.444;2023-04-20T10:15:38;8.40;99.90
7518;DHT22;3800;48.922;9.444;2023-04-20T10:18:21;8.40;99.90
7518;DHT22;3800;48.922;9.444;2023-04-20T10:20:50;8.30;99.90
7518;DHT22;3800;48.922;9.444;2023-04-20T10:23:18;8.30;99.90
7518;DHT22;3800;48.922;9.444;2023-04-20T10:25:54;8.30;99.90
7518;DHT22;3800;48.922;9.444;2023-04-20T10:28:22;8.30;99.90
7518;DHT22;3800;48.922;9.444;2023-04-20T10:30:50;8.30;99.90
7518;DHT22;3800;48.922;9.444;2023-04-20T10:33:18;8.10;99.90
7518;DHT22;3800;48.922;9.444;2023-04-20T10:35:48;8.00;99.90
7518;DHT22;3800;48.922;9.444;2023-04-20T10:38:27;8.00;99.90
7518;DHT22;3800;48.922;9.444;2023-04-20T10:40:55;8.00;99.90
7518;DHT22;3800;48.922;9.444;2023-04-20T10:43:23;8.00;99.90
7518;DHT22;3800;48.922;9.444;2023-04-20T10:45:51;8.00;99.90
7518;DHT22;3800;48.922;9.444;2023-04-20T10:48:19;8.00;99.90
7518;DHT22;3800;48.922;9.444;2023-04-20T10:50:48;8.10;99.90
7518;DHT22;3800;48.922;9.444;2023-04-20T10:53:18;8.10;99.90
7518;DHT22;3800;48.922;9.444;2023-04-20T10:55:46;8.20;99.90
7518;DHT22;3800;48.922;9.444;2023-04-20T10:58:20;8.20;99.90
7518;DHT22;3800;48.922;9.444;2023-04-20T11:00:55;8.30;99.90
7518;DHT22;3800;48.922;9.444;2023-04-20T11:03:21;8.40;99.90
7518;DHT22;3800;48.922;9.444;2023-04-20T11:05:50;8.50;99.90
7518;DHT22;3800;48.922;9.444;2023-04-20T11:08:18;8.60;99.90
7518;DHT22;3800;48.922;9.444;2023-04-20T11:10:46;8.70;99.90
7518;DHT22;3800;48.922;9.444;2023-04-20T11:13:19;8.70;99.90
7518;DHT22;3800;48.922;9.444;2023-04-20T11:15:47;8.80;99.90
7518;DHT22;3800;48.922;9.444;2023-04-20T11:18:15;8.70;99.90
7518;DHT22;3800;48.922;9.444;2023-04-20T11:20:50;8.80;99.90
7518;DHT22;3800;48.922;9.444;2023-04-20T11:23:20;8.90;99.90
7518;DHT22;3800;48.922;9.444;2023-04-20T11:25:51;9.00;99.90
7518;DHT22;3800;48.922;9.444;2023-04-20T11:28:20;9.10;99.90
7518;DHT22;3800;48.922;9.444;2023-04-20T11:30:48;9.20;99.90
7518;DHT22;3800;48.922;9.444;2023-04-20T11:33:24;9.40;99.90
7518;DHT22;3800;48.922;9.444;2023-04-20T11:35:53;9.60;99.90
7518;DHT22;3800;48.922;9.444;2023-04-20T11:38:31;9.70;99.90
7518;DHT22;3800;48.922;9.444;2023-04-20T11:40:59;9.90;99.90
7518;DHT22;3800;48.922;9.444;2023-04-20T11:43:41;9.90;99.90
7518;DHT22;3800;48.922;9.444;2023-04-20T11:46:16;9.90;99.90
7518;DHT22;3800;48.922;9.444;2023-04-20T11:48:43;9.90;99.90
7518;DHT22;3800;48.922;9.444;2023-04-20T11:51:13;10.10;99.90
7518;DHT22;3800;48.922;9.444;2023-04-20T11:53:41;10.00;99.90
7518;DHT22;3800;48.922;9.444;2023-04-20T11:56:10;10.40;99.90
7518;DHT22;3800;48.922;9.444;2023-04-20T11:58:38;10.40;99.90
7518;DHT22;3800;48.922;9.444;2023-04-20T12:01:06;10.50;99.90
7518;DHT22;3800;48.922;9.444;2023-04-20T12:03:35;10.40;99.90
7518;DHT22;3800;48.922;9.444;2023-04-20T12:06:03;10.30;99.90
7518;DHT22;3800;48.922;9.444;2023-04-20T12:08:31;10.10;99.90
7518;DHT22;3800;48.922;9.444;2023-04-20T12:10:59;9.90;99.90
7518;DHT22;3800;48.922;9.444;2023-04-20T12:13:28;9.70;99.90
7518;DHT22;3800;48.922;9.444;2023-04-20T12:15:57;9.70;99.90
7518;DHT22;3800;48.922;9.444;2023-04-20T12:18:25;9.50;99.90
7518;DHT22;3800;48.922;9.444;2023-04-20T12:20:53;9.40;99.90
7518;DHT22;3800;48.922;9.444;2023-04-20T12:23:21;9.40;99.90
7518;DHT22;3800;48.922;9.444;2023-04-20T12:25:50;9.30;99.90
7518;DHT22;3800;48.922;9.444;2023-04-20T12:28:19;9.30;99.90
7518;DHT22;3800;48.922;9.444;2023-04-20T12:30:47;9.20;99.90
7518;DHT22;3800;48.922;9.444;2023-04-20T12:33:15;9.20;99.90
7518;DHT22;3800;48.922;9.444;2023-04-20T12:35:44;9.20;99.90
7518;DHT22;3800;48.922;9.444;2023-04-20T12:38:12;9.10;99.90
7518;DHT22;3800;48.922;9.444;2023-04-20T12:40:41;9.10;99.90
7518;DHT22;3800;48.922;9.444;2023-04-20T12:43:09;9.00;99.90
7518;DHT22;3800;48.922;9.444;2023-04-20T12:45:37;8.90;99.90
7518;DHT22;3800;48.922;9.444;2023-04-20T12:48:06;9.00;99.90
7518;DHT22;3800;48.922;9.444;2023-04-20T12:50:35;8.90;99.90
7518;DHT22;3800;48.922;9.444;2023-04-20T12:53:03;8.90;99.90
7518;DHT22;3800;48.922;9.444;2023-04-20T12:55:32;8.80;99.90
7518;DHT22;3800;48.922;9.444;2023-04-20T12:58:00;8.80;99.90
7518;DHT22;3800;48.922;9.444;2023-04-20T13:00:28;8.80;99.90
7518;DHT22;3800;48.922;9.444;2023-04-20T13:02:56;8.80;99.90
7518;DHT22;3800;48.922;9.444;2023-04-20T13:05:26;8.70;99.90
7518;DHT22;3800;48.922;9.444;2023-04-20T13:07:54;8.70;99.90
7518;DHT22;3800;48.922;9.444;2023-04-20T13:10:22;8.70;99.90
7518;DHT22;3800;48.922;9.444;2023-04-20T13:12:50;8.70;99.90
7518;DHT22;3800;48.922;9.444;2023-04-20T13:15:19;8.70;99.90
7518;DHT22;3800;48.922;9.444;2023-04-20T13:17:47;8.70;99.90
7518;DHT22;3800;48.922;9.444;2023-04-20T13:20:15;8.70;99.90
7518;DHT22;3800;48.922;9.444;2023-04-20T13:22:44;8.80;99.90
7518;DHT22;3800;48.922;9.444;2023-04-20T13:25:12;8.70;99.90
7518;DHT22;3800;48.922;9.444;2023-04-20T13:27:41;8.70;99.90
7518;DHT22;3800;48.922;9.444;2023-04-20T13:30:09;8.70;99.90
7518;DHT22;3800;48.922;9.444;2023-04-20T13:32:38;8.70;99.90
7518;DHT22;3800;48.922;9.444;2023-04-20T13:35:07;8.70;99.90
7518;DHT22;3800;48.922;9.444;2023-04-20T13:37:35;8.70;99.90
7518;DHT22;3800;48.922;9.444;2023-04-20T13:40:04;8.70;99.90
7518;DHT22;3800;48.922;9.444;2023-04-20T13:45:08;8.70;99.90
7518;DHT22;3800;48.922;9.444;2023-04-20T13:47:37;8.70;99.90
7518;DHT22;3800;48.922;9.444;2023-04-20T13:50:06;8.70;99.90
7518;DHT22;3800;48.922;9.444;2023-04-20T13:52:34;8.70;99.90
7518;DHT22;3800;48.922;9.444;2023-04-20T13:55:03;8.70;99.90
7518;DHT22;3800;48.922;9.444;2023-04-20T13:57:31;8.70;99.90
7518;DHT22;3800;48.922;9.444;2023-04-20T13:59:59;8.60;99.90
7518;DHT22;3800;48.922;9.444;2023-04-20T14:02:28;8.60;99.90
7518;DHT22;3800;48.922;9.444;2023-04-20T14:04:56;8.60;99.90
7518;DHT22;3800;48.922;9.444;2023-04-20T14:07:25;8.60;99.90
7518;DHT22;3800;48.922;9.444;2023-04-20T14:09:54;8.60;99.90
7518;DHT22;3800;48.922;9.444;2023-04-20T14:12:22;8.60;99.90
7518;DHT22;3800;48.922;9.444;2023-04-20T14:14:51;8.50;99.90
7518;DHT22;3800;48.922;9.444;2023-04-20T14:17:19;8.60;99.90
7518;DHT22;3800;48.922;9.444;2023-04-20T14:19:47;8.60;99.90
7518;DHT22;3800;48.922;9.444;2023-04-20T14:22:15;8.60;99.90
7518;DHT22;3800;48.922;9.444;2023-04-20T14:24:44;8.60;99.90
7518;DHT22;3800;48.922;9.444;2023-04-20T14:27:12;8.60;99.90
7518;DHT22;3800;48.922;9.444;2023-04-20T14:29:40;8.50;99.90
7518;DHT22;3800;48.922;9.444;2023-04-20T14:32:08;8.50;99.90
7518;DHT22;3800;48.922;9.444;2023-04-20T14:34:37;8.50;99.90
7518;DHT22;3800;48.922;9.444;2023-04-20T14:37:06;8.50;99.90
7518;DHT22;3800;48.922;9.444;2023-04-20T14:39:34;8.50;99.90
7518;DHT22;3800;48.922;9.444;2023-04-20T14:42:02;8.50;99.90
7518;DHT22;3800;48.922;9.444;2023-04-20T14:44:30;8.60;99.90
7518;DHT22;3800;48.922;9.444;2023-04-20T14:46:59;8.60;99.90
7518;DHT22;3800;48.922;9.444;2023-04-20T14:49:27;8.60;99.90
7518;DHT22;3800;48.922;9.444;2023-04-20T14:51:55;8.60;99.90
7518;DHT22;3800;48.922;9.444;2023-04-20T14:54:23;8.50;99.90
7518;DHT22;3800;48.922;9.444;2023-04-20T14:56:52;8.50;99.90
7518;DHT22;3800;48.922;9.444;2023-04-20T14:59:20;8.50;99.90
7518;DHT22;3800;48.922;9.444;2023-04-20T15:01:48;8.40;99.90
7518;DHT22;3800;48.922;9.444;2023-04-20T15:04:17;8.40;99.90
7518;DHT22;3800;48.922;9.444;2023-04-20T15:06:45;8.40;99.90
7518;DHT22;3800;48.922;9.444;2023-04-20T15:09:13;8.30;99.90
7518;DHT22;3800;48.922;9.444;2023-04-20T15:11:41;8.30;99.90
7518;DHT22;3800;48.922;9.444;2023-04-20T15:14:10;8.30;99.90
7518;DHT22;3800;48.922;9.444;2023-04-20T15:16:39;8.30;99.90
7518;DHT22;3800;48.922;9.444;2023-04-20T15:19:07;8.30;99.90
7518;DHT22;3800;48.922;9.444;2023-04-20T15:21:35;8.20;99.90
7518;DHT22;3800;48.922;9.444;2023-04-20T15:24:04;8.20;99.90
7518;DHT22;3800;48.922;9.444;2023-04-20T15:26:32;8.20;99.90
7518;DHT22;3800;48.922;9.444;2023-04-20T15:29:00;8.20;99.90
7518;DHT22;3800;48.922;9.444;2023-04-20T15:31:29;8.10;99.90
7518;DHT22;3800;48.922;9.444;2023-04-20T15:33:58;8.10;99.90
7518;DHT22;3800;48.922;9.444;2023-04-20T15:36:25;8.00;99.90
7518;DHT22;3800;48.922;9.444;2023-04-20T15:38:54;8.00;99.90
7518;DHT22;3800;48.922;9.444;2023-04-20T15:41:23;8.00;99.90
7518;DHT22;3800;48.922;9.444;2023-04-20T15:43:51;7.90;99.90
7518;DHT22;3800;48.922;9.444;2023-04-20T15:46:19;7.90;99.90
7518;DHT22;3800;48.922;9.444;2023-04-20T15:48:47;7.90;99.90
7518;DHT22;3800;48.922;9.444;2023-04-20T15:51:16;7.90;99.90
7518;DHT22;3800;48.922;9.444;2023-04-20T15:53:44;7.90;99.90
7518;DHT22;3800;48.922;9.444;2023-04-20T15:56:13;7.80;99.90
7518;DHT22;3800;48.922;9.444;2023-04-20T15:58:41;7.80;99.90
7518;DHT22;3800;48.922;9.444;2023-04-20T16:01:09;7.80;99.90
7518;DHT22;3800;48.922;9.444;2023-04-20T16:03:37;7.80;99.90
7518;DHT22;3800;48.922;9.444;2023-04-20T16:06:06;7.80;99.90
7518;DHT22;3800;48.922;9.444;2023-04-20T16:08:34;7.80;99.90
7518;DHT22;3800;48.922;9.444;2023-04-20T16:11:02;7.80;99.90
7518;DHT22;3800;48.922;9.444;2023-04-20T16:13:31;7.80;99.90
7518;DHT22;3800;48.922;9.444;2023-04-20T16:16:00;7.70;99.90
7518;DHT22;3800;48.922;9.444;2023-04-20T16:18:28;7.70;99.90
7518;DHT22;3800;48.922;9.444;2023-04-20T16:20:56;7.70;99.90
7518;DHT22;3800;48.922;9.444;2023-04-20T16:23:25;7.70;99.90
7518;DHT22;3800;48.922;9.444;2023-04-20T16:25:53;7.70;99.90
7518;DHT22;3800;48.922;9.444;2023-04-20T16:28:22;7.60;99.90